ADDS TAF Board (Experimental) INFO Settings
IDs: Format: Expanded Condensed

KCLT - Charlotte/Douglas In, NC, US

Issued at 2329 UTC 25 Jun 2016
Updated at: 0054 UTC 26 Jun 2016
Time2352Z 26/01Z 26/02Z 26/03Z 26/04Z 26/05Z 26/06Z 26/07Z 26/08Z 26/09Z 26/10Z 26/11Z 26/12Z 26/13Z
Type OBS PRVL PRVL PRVL PRVL PRVL PRVL PRVL PRVL PRVL
  [TEMP]  
PRVL
  [TEMP]  
PRVL
  [TEMP]  
PRVL
  [TEMP]  
PRVL
VIS 10 >6 >6 >6 >6 >6 >6 >6 >6 >6 >6 >6 >6 >6
CIG -- 60 60 60 60 20 20 20 20 20
  [8]  
20
  [8]  
20
  [8]  
20
  [8]  
20
Cover SCT BKN BKN BKN BKN BKN BKN BKN BKN BKN
  [BKN]  
BKN
  [BKN]  
BKN
  [BKN]  
BKN
  [BKN]  
BKN
FltCat VFR VFR VFR VFR VFR MVFR MVFR MVFR MVFR MVFR
  [IFR]  
MVFR
  [IFR]  
MVFR
  [IFR]  
MVFR
  [IFR]  
MVFR
WX -- -- -- -- -- -- -- -- -- --
  [--]  
--
  [--]  
--
  [--]  
--
  [--]  
--
WDir 50 60 60 60 60 70 70 70 70 70
[70]
70
[70]
70
[70]
70
[70]
70
WSpd 9 10 10 10 10 7 7 7 7 7
  [7]  
7
  [7]  
7
  [7]  
7
  [7]  
7
WGst 23 -- -- -- -- -- -- -- -- --
  [--]  
--
  [--]  
--
  [--]  
--
  [--]  
--
R05/23
XWnd -0 -2 -2 -2 -2 -3 -3 -3 -3 -3 -3 -3 -3 -3
XGst -1 -- -- -- -- -- -- -- -- 0 0 0 0 --
HWnd 9 10 10 10 10 6 6 6 6 6 6 6 6 6
HGst 23 -- -- -- -- -- -- -- -- 0 0 0 0 --
R18/36
XWnd 7 9 9 9 9 7 7 7 7 7 7 7 7 7
XGst 19 -- -- -- -- -- -- -- -- 0 0 0 0 --
HWnd -5 -4 -4 -4 -4 -2 -2 -2 -2 -2 -2 -2 -2 -2
HGst -14 -- -- -- -- -- -- -- -- 0 0 0 0 --

NOTE: TEMPO conditions in [brackets]. Keep in mind TEMPO conditions might be better (lower impact) than prevailing conditions.

Raw TAF
KCLT 252329Z 2600/2624 06010KT P6SM SCT030 BKN060
  FM260500 07007KT P6SM BKN020
  TEMPO 2609/2613 BKN008
  FM261430 07006KT P6SM BKN050
  FM261700 08006KT P6SM FEW060 SCT250


Raw METAR
KCLT 252352Z 05009G23KT 10SM FEW035 SCT095 SCT150 SCT250 28/19 A3014 RMK AO2 SLP197 T02830189 10322 20283 52012
KCLT 252252Z 08010G20KT 10SM FEW038 FEW090 SCT250 29/19 A3013 RMK AO2 SLP193 T02890189
KCLT 252152Z 07012KT 10SM FEW038 FEW250 29/19 A3012 RMK AO2 SLP190 CB DSNT SE T02890194

METAR Board
Radar Display
Forecast Discussion

TAF Board Legend

Potential Impact
Threat None Slight Moderate High
Visibility (sm) ≥5.1 5.1>X≥3 3>X≥1 <1
Ceiling (100 ft) ≥30.1 30.1>X≥10 10>X≥5 <5
Wind Speed (kt) <10 10≤X<20 20≤X<30 ≥30
Wind Gust (kt) <15 15≤X<25 25≤X<35 ≥35
Weather No Wx Reported VCTS,-TS,-FZRA,SN TS,FZRA +TS,+FZRA,+SN